createdAt,value
2023-03-11T00:00:47.166Z,8.32
2023-03-11T00:03:53.604Z,8.33
2023-03-11T00:06:57.342Z,8.31
2023-03-11T00:10:01.199Z,8.37
2023-03-11T00:13:07.741Z,8.25
2023-03-11T00:16:11.546Z,8.32
2023-03-11T00:19:15.136Z,8.30
2023-03-11T00:22:18.550Z,8.25
2023-03-11T00:25:23.106Z,8.30
2023-03-11T00:28:28.020Z,8.24
2023-03-11T00:31:31.443Z,8.15
2023-03-11T00:34:35.733Z,8.20
2023-03-11T00:37:39.192Z,8.22
2023-03-11T00:40:43.092Z,8.19
2023-03-11T00:43:48.003Z,8.16
2023-03-11T00:46:51.501Z,8.18
2023-03-11T00:49:55.025Z,8.21
2023-03-11T00:52:59.373Z,8.19
2023-03-11T00:56:08.694Z,8.12
2023-03-11T00:59:14.077Z,8.09
2023-03-11T01:02:17.661Z,8.02
2023-03-11T01:05:22.371Z,7.88
2023-03-11T01:08:27.119Z,7.86
2023-03-11T01:11:31.635Z,7.83
2023-03-11T01:14:36.648Z,7.66
2023-03-11T01:17:40.247Z,7.52
2023-03-11T01:20:44.029Z,7.46
2023-03-11T01:23:48.122Z,7.33
2023-03-11T01:26:54.178Z,7.18
2023-03-11T01:29:59.076Z,7.11
2023-03-11T01:33:03.595Z,6.99
2023-03-11T01:36:10.078Z,6.99
2023-03-11T01:39:13.846Z,6.90
2023-03-11T01:42:17.354Z,6.87
2023-03-11T01:45:42.713Z,6.90
2023-03-11T01:48:50.317Z,6.88
2023-03-11T01:51:58.406Z,6.93
2023-03-11T01:55:01.891Z,6.76
2023-03-11T01:58:09.265Z,6.75
2023-03-11T02:01:15.205Z,6.61
2023-03-11T02:04:21.541Z,6.48
2023-03-11T02:07:25.203Z,6.38
2023-03-11T02:10:29.394Z,6.33
2023-03-11T02:13:35.427Z,6.21
2023-03-11T02:16:40.590Z,6.16
2023-03-11T02:20:01.253Z,6.11
2023-03-11T02:23:06.148Z,6.03
2023-03-11T02:26:16.972Z,5.92
2023-03-11T02:29:23.689Z,5.80
2023-03-11T02:32:28.142Z,5.72
2023-03-11T02:35:32.569Z,5.59
2023-03-11T02:38:37.100Z,5.45
2023-03-11T02:41:45.552Z,5.41
2023-03-11T02:44:57.856Z,5.36
2023-03-11T02:48:05.759Z,5.31
2023-03-11T02:51:10.887Z,5.22
2023-03-11T02:54:14.808Z,5.20
2023-03-11T02:57:19.190Z,5.13
2023-03-11T03:00:25.054Z,5.08
2023-03-11T03:03:38.037Z,5.05
2023-03-11T03:06:42.067Z,5.01
2023-03-11T03:09:45.730Z,4.92
2023-03-11T03:12:49.612Z,4.86
2023-03-11T03:15:54.989Z,4.85
2023-03-11T03:18:58.515Z,4.88
2023-03-11T03:22:02.708Z,4.83
2023-03-11T03:25:07.152Z,4.78
2023-03-11T03:28:11.762Z,4.70
2023-03-11T03:31:19.132Z,4.77
2023-03-11T03:34:22.819Z,4.70
2023-03-11T03:37:28.143Z,4.72
2023-03-11T03:40:32.069Z,4.67
2023-03-11T03:43:38.772Z,4.64
2023-03-11T03:46:43.960Z,4.65
2023-03-11T03:49:47.793Z,4.61
2023-03-11T03:52:51.489Z,4.59
2023-03-11T03:55:57.104Z,4.55
2023-03-11T03:59:01.104Z,4.52
2023-03-11T04:02:12.744Z,4.52
2023-03-11T04:05:16.775Z,4.51
2023-03-11T04:08:21.452Z,4.45
2023-03-11T04:11:25.098Z,4.41
2023-03-11T04:14:29.267Z,4.39
2023-03-11T04:17:38.431Z,4.45
2023-03-11T04:20:42.256Z,4.44
2023-03-11T04:23:46.601Z,4.30
2023-03-11T04:26:52.110Z,4.33
2023-03-11T04:29:56.255Z,4.37
2023-03-11T04:33:01.118Z,4.38
2023-03-11T04:36:07.628Z,4.31
2023-03-11T04:39:12.907Z,4.26
2023-03-11T04:42:19.505Z,4.29
2023-03-11T04:45:24.574Z,4.19
2023-03-11T04:48:32.975Z,4.06
2023-03-11T04:51:36.865Z,3.99
2023-03-11T04:54:41.881Z,3.91
2023-03-11T04:57:45.980Z,3.40
2023-03-11T05:00:51.094Z,2.58
2023-03-11T05:03:56.110Z,2.35
2023-03-11T05:06:59.811Z,2.24
2023-03-11T05:10:04.254Z,2.20
2023-03-11T05:13:09.429Z,2.15
2023-03-11T05:16:15.078Z,2.09
2023-03-11T05:19:32.019Z,2.07
2023-03-11T05:22:38.349Z,2.07
2023-03-11T05:25:42.516Z,2.05
2023-03-11T05:28:46.976Z,2.05
2023-03-11T05:31:51.053Z,2.03
2023-03-11T05:34:56.437Z,1.98
2023-03-11T05:38:00.088Z,1.92
2023-03-11T05:41:06.609Z,1.86
2023-03-11T05:44:11.196Z,1.84
2023-03-11T05:47:15.033Z,1.83
2023-03-11T05:50:20.521Z,1.76
2023-03-11T05:53:26.349Z,1.72
2023-03-11T05:56:30.166Z,1.67
2023-03-11T05:59:35.641Z,1.58
2023-03-11T06:02:42.228Z,1.51
2023-03-11T06:05:52.882Z,1.46
2023-03-11T06:08:56.689Z,1.42
2023-03-11T06:12:04.922Z,1.38
2023-03-11T06:15:22.084Z,1.37
2023-03-11T06:18:27.133Z,1.29
2023-03-11T06:21:32.454Z,1.27
2023-03-11T06:24:36.022Z,1.19
2023-03-11T06:27:39.989Z,1.13
2023-03-11T06:30:44.438Z,1.12
2023-03-11T06:33:51.195Z,1.06
2023-03-11T06:36:57.316Z,1.05
2023-03-11T06:40:01.011Z,0.98
2023-03-11T06:43:04.574Z,0.80
2023-03-11T06:46:12.352Z,0.70
2023-03-11T06:49:17.103Z,0.60
2023-03-11T06:52:23.259Z,0.57
2023-03-11T06:55:27.215Z,0.53
2023-03-11T06:58:31.824Z,0.44
2023-03-11T07:01:35.523Z,0.43
2023-03-11T07:04:41.475Z,0.39
2023-03-11T07:07:46.421Z,0.36
2023-03-11T07:11:02.003Z,0.26
2023-03-11T07:14:06.844Z,0.23
2023-03-11T07:17:13.523Z,0.25
2023-03-11T07:23:29.389Z,0.25
2023-03-11T07:26:35.012Z,0.23
2023-03-11T07:29:38.304Z,0.25
2023-03-11T07:32:42.991Z,0.19
2023-03-11T07:35:49.399Z,0.14
2023-03-11T07:38:59.580Z,0.08
2023-03-11T07:42:03.040Z,0.12
2023-03-11T07:45:12.566Z,0.07
2023-03-11T07:48:16.093Z,0.06
2023-03-11T07:51:22.236Z,0.05
2023-03-11T07:54:28.851Z,-0.04
2023-03-11T07:57:32.271Z,-0.06
2023-03-11T08:00:35.657Z,-0.05
2023-03-11T08:03:40.006Z,-0.09
2023-03-11T08:06:44.826Z,-0.12
2023-03-11T08:09:49.747Z,-0.11
2023-03-11T08:12:53.294Z,-0.11
2023-03-11T08:15:56.831Z,-0.07
2023-03-11T08:19:00.505Z,-0.10
2023-03-11T08:22:04.875Z,-0.10
2023-03-11T08:25:10.284Z,-0.09
2023-03-11T08:28:28.413Z,-0.06
2023-03-11T08:31:35.152Z,-0.08
2023-03-11T08:34:39.779Z,-0.09
2023-03-11T08:37:43.555Z,-0.09
2023-03-11T08:40:48.700Z,-0.11
2023-03-11T08:43:53.470Z,-0.08
2023-03-11T08:46:57.124Z,-0.13
2023-03-11T08:50:01.118Z,-0.12
2023-03-11T08:53:07.180Z,-0.13
2023-03-11T08:56:12.262Z,-0.12
2023-03-11T08:59:15.867Z,-0.11
2023-03-11T09:02:19.687Z,-0.09
2023-03-11T09:05:23.811Z,-0.08
2023-03-11T09:08:28.126Z,-0.05
2023-03-11T09:11:32.978Z,-0.03
2023-03-11T09:14:39.433Z,-0.05
2023-03-11T09:17:45.117Z,-0.05
2023-03-11T09:20:51.949Z,0.00
2023-03-11T09:23:55.372Z,0.02
2023-03-11T09:27:00.152Z,0.05
2023-03-11T09:30:03.734Z,0.08
2023-03-11T09:33:07.256Z,0.13
2023-03-11T09:36:14.903Z,0.02
2023-03-11T09:39:18.520Z,0.12
2023-03-11T09:42:31.820Z,0.10
2023-03-11T09:45:43.664Z,0.13
2023-03-11T09:48:55.194Z,0.09
2023-03-11T09:52:08.131Z,0.13
2023-03-11T09:55:27.795Z,0.09
2023-03-11T09:58:40.914Z,0.05
2023-03-11T10:01:47.917Z,0.02
2023-03-11T10:04:56.408Z,0.04
2023-03-11T10:08:10.378Z,0.04
2023-03-11T10:11:27.412Z,0.04
2023-03-11T10:14:44.078Z,0.08
2023-03-11T10:18:05.817Z,0.13
2023-03-11T10:21:20.323Z,0.09
2023-03-11T10:24:41.211Z,-0.05
2023-03-11T10:27:51.538Z,-0.01
2023-03-11T10:31:01.693Z,-0.02
2023-03-11T10:34:14.431Z,-0.05
2023-03-11T10:37:22.007Z,-0.04
2023-03-11T10:40:34.240Z,-0.06
2023-03-11T10:43:41.369Z,0.03
2023-03-11T10:46:46.677Z,0.07
2023-03-11T10:49:50.341Z,-0.01
2023-03-11T10:53:09.005Z,-0.01
2023-03-11T10:56:27.175Z,0.01
2023-03-11T10:59:33.731Z,-0.06
2023-03-11T11:02:43.879Z,0.00
2023-03-11T11:06:00.040Z,0.01
2023-03-11T11:09:17.560Z,0.11
2023-03-11T11:12:22.622Z,0.15
2023-03-11T11:15:28.151Z,0.23
2023-03-11T11:18:36.040Z,0.18
2023-03-11T11:21:43.389Z,0.14
2023-03-11T11:24:48.625Z,0.15
2023-03-11T11:27:56.219Z,0.08
2023-03-11T11:31:01.975Z,-0.03
2023-03-11T11:34:28.407Z,-0.15
2023-03-11T11:37:35.924Z,-0.22
2023-03-11T11:40:39.409Z,-0.13
2023-03-11T11:43:50.992Z,-0.10
2023-03-11T11:46:58.698Z,-0.07
2023-03-11T11:50:07.101Z,-0.01
2023-03-11T11:53:26.803Z,-0.01
2023-03-11T11:56:31.104Z,0.06
2023-03-11T11:59:34.617Z,0.04
2023-03-11T12:02:54.759Z,0.10
2023-03-11T12:06:02.875Z,0.22
2023-03-11T12:09:24.454Z,0.27
2023-03-11T12:12:34.330Z,0.29
2023-03-11T12:15:42.431Z,0.29
2023-03-11T12:18:52.190Z,0.22
2023-03-11T12:22:18.959Z,0.15
2023-03-11T12:25:30.158Z,-0.01
2023-03-11T12:28:42.362Z,0.02
2023-03-11T12:31:48.082Z,0.07
2023-03-11T12:34:52.095Z,0.08
2023-03-11T12:38:06.829Z,0.14
2023-03-11T12:41:29.651Z,0.07
2023-03-11T12:44:36.404Z,0.07
2023-03-11T12:47:40.102Z,0.01
2023-03-11T12:50:44.901Z,0.03
2023-03-11T12:53:50.749Z,-0.06
2023-03-11T12:57:00.794Z,-0.02
2023-03-11T13:00:23.150Z,0.06
2023-03-11T13:03:41.008Z,-0.05
2023-03-11T13:07:12.644Z,-0.07
2023-03-11T13:10:36.648Z,-0.05
2023-03-11T13:13:41.618Z,-0.07
2023-03-11T13:16:46.459Z,-0.03
2023-03-11T13:19:53.896Z,0.05
2023-03-11T13:23:26.637Z,0.10
2023-03-11T13:26:42.070Z,0.13
2023-03-11T13:29:59.330Z,0.14
2023-03-11T13:33:30.781Z,0.21
2023-03-11T13:36:46.657Z,0.24
2023-03-11T13:40:02.255Z,0.27
2023-03-11T13:43:13.656Z,0.26
2023-03-11T13:46:31.761Z,0.28
2023-03-11T13:49:42.497Z,0.33
2023-03-11T13:52:49.353Z,0.37
2023-03-11T13:55:53.417Z,0.45
2023-03-11T13:59:17.585Z,0.39
2023-03-11T14:02:25.353Z,0.25
2023-03-11T14:05:32.649Z,0.14
2023-03-11T14:08:37.565Z,0.11
2023-03-11T14:11:43.939Z,0.06
2023-03-11T14:14:57.333Z,0.09
2023-03-11T14:18:31.610Z,-0.06
2023-03-11T14:21:36.244Z,-0.04
2023-03-11T14:24:40.716Z,-0.06
2023-03-11T14:27:55.552Z,-0.06
2023-03-11T14:31:02.360Z,-0.05
2023-03-11T14:34:15.762Z,-0.02
2023-03-11T14:37:29.069Z,0.00
2023-03-11T14:40:35.476Z,-0.06
2023-03-11T14:43:44.384Z,-0.04
2023-03-11T14:46:50.936Z,-0.03
2023-03-11T14:49:56.376Z,0.01
2023-03-11T14:53:04.696Z,0.07
2023-03-11T14:56:14.791Z,0.22
2023-03-11T14:59:26.939Z,0.31
2023-03-11T15:02:44.098Z,0.26
2023-03-11T15:05:51.949Z,0.24
2023-03-11T15:09:00.860Z,0.21
2023-03-11T15:12:06.044Z,0.14
2023-03-11T15:15:24.915Z,0.17
2023-03-11T15:18:33.453Z,0.16
2023-03-11T15:21:37.252Z,0.09
2023-03-11T15:24:45.099Z,0.14
2023-03-11T15:27:48.832Z,0.21
2023-03-11T15:30:52.850Z,0.15
2023-03-11T15:33:58.340Z,0.12
2023-03-11T15:37:06.960Z,0.06
2023-03-11T15:40:20.149Z,0.09
2023-03-11T15:43:28.147Z,0.15
2023-03-11T15:46:31.866Z,0.14
2023-03-11T15:49:36.990Z,0.09
2023-03-11T15:52:40.524Z,-0.03
2023-03-11T15:55:44.214Z,-0.01
2023-03-11T15:58:47.983Z,-0.04
2023-03-11T16:01:51.624Z,-0.09
2023-03-11T16:04:58.752Z,-0.15
2023-03-11T16:08:02.543Z,-0.26
2023-03-11T16:11:07.272Z,-0.22
2023-03-11T16:14:17.780Z,-0.28
2023-03-11T16:17:23.595Z,-0.27
2023-03-11T16:20:30.340Z,-0.23
2023-03-11T16:23:50.785Z,-0.21
2023-03-11T16:26:55.529Z,-0.23
2023-03-11T16:29:59.009Z,-0.14
2023-03-11T16:33:04.761Z,-0.17
2023-03-11T16:36:12.436Z,-0.19
2023-03-11T16:39:15.961Z,-0.20
2023-03-11T16:42:25.281Z,-0.26
2023-03-11T16:45:29.172Z,-0.28
2023-03-11T16:48:32.720Z,-0.31
2023-03-11T16:51:37.617Z,-0.31
2023-03-11T16:54:41.266Z,-0.32
2023-03-11T16:57:45.470Z,-0.33
2023-03-11T17:00:49.217Z,-0.37
2023-03-11T17:03:53.106Z,-0.37
2023-03-11T17:06:58.191Z,-0.36
2023-03-11T17:10:02.324Z,-0.33
2023-03-11T17:13:06.128Z,-0.28
2023-03-11T17:16:09.665Z,-0.33
2023-03-11T17:19:13.448Z,-0.29
2023-03-11T17:22:18.569Z,-0.28
2023-03-11T17:25:22.456Z,-0.18
2023-03-11T17:28:26.361Z,-0.25
2023-03-11T17:31:30.015Z,-0.27
2023-03-11T17:34:34.230Z,-0.32
2023-03-11T17:37:39.161Z,-0.35
2023-03-11T17:40:42.848Z,-0.35
2023-03-11T17:43:49.178Z,-0.34
2023-03-11T17:46:53.994Z,-0.37
2023-03-11T17:49:57.781Z,-0.35
2023-03-11T17:53:04.045Z,-0.36
2023-03-11T17:56:09.670Z,-0.36
2023-03-11T17:59:13.309Z,-0.30
2023-03-11T18:02:16.889Z,-0.32
2023-03-11T18:05:21.110Z,-0.26
2023-03-11T18:08:26.595Z,-0.26
2023-03-11T18:11:30.338Z,-0.29
2023-03-11T18:14:34.159Z,-0.28
2023-03-11T18:17:37.573Z,-0.26
2023-03-11T18:20:42.276Z,-0.22
2023-03-11T18:23:48.481Z,-0.22
2023-03-11T18:26:52.213Z,-0.25
2023-03-11T18:29:55.708Z,-0.26
2023-03-11T18:32:59.438Z,-0.25
2023-03-11T18:36:13.054Z,-0.29
2023-03-11T18:39:18.138Z,-0.26
2023-03-11T18:42:21.540Z,-0.28
2023-03-11T18:45:25.081Z,-0.30
2023-03-11T18:48:29.276Z,-0.33
2023-03-11T18:51:34.298Z,-0.28
2023-03-11T18:54:39.163Z,-0.28
2023-03-11T18:57:45.772Z,-0.26
2023-03-11T19:00:49.333Z,-0.32
2023-03-11T19:03:54.515Z,-0.30
2023-03-11T19:06:57.959Z,-0.28
2023-03-11T19:10:05.772Z,-0.33
2023-03-11T19:13:09.980Z,-0.32
2023-03-11T19:16:15.484Z,-0.36
2023-03-11T19:19:19.090Z,-0.38
2023-03-11T19:22:22.662Z,-0.37
2023-03-11T19:25:28.295Z,-0.36
2023-03-11T19:28:31.897Z,-0.38
2023-03-11T19:31:36.954Z,-0.41
2023-03-11T19:34:40.752Z,-0.45
2023-03-11T19:37:44.480Z,-0.48
2023-03-11T19:40:53.629Z,-0.49
2023-03-11T19:43:57.183Z,-0.49
2023-03-11T19:47:00.790Z,-0.58
2023-03-11T19:50:04.874Z,-0.61
2023-03-11T19:53:08.562Z,-0.67
2023-03-11T19:56:13.505Z,-0.74
2023-03-11T19:59:17.377Z,-0.79
2023-03-11T20:02:21.079Z,-0.87
2023-03-11T20:05:24.592Z,-0.87
2023-03-11T20:08:30.379Z,-0.82
2023-03-11T20:11:38.562Z,-0.83
2023-03-11T20:14:42.382Z,-0.82
2023-03-11T20:17:45.869Z,-0.85
2023-03-11T20:20:49.425Z,-0.82
2023-03-11T20:23:55.382Z,-0.87
2023-03-11T20:27:00.435Z,-0.82
2023-03-11T20:30:05.002Z,-0.83
2023-03-11T20:33:09.049Z,-0.86
2023-03-11T20:36:14.521Z,-0.82
2023-03-11T20:39:18.105Z,-0.86
2023-03-11T20:42:23.072Z,-0.92
2023-03-11T20:45:26.821Z,-0.94
2023-03-11T20:48:31.868Z,-0.91
2023-03-11T20:51:35.427Z,-0.91
2023-03-11T20:54:39.010Z,-0.89
2023-03-11T20:57:44.028Z,-0.88
2023-03-11T21:00:47.611Z,-0.90
2023-03-11T21:03:53.702Z,-0.86
2023-03-11T21:06:57.830Z,-0.88
2023-03-11T21:10:01.463Z,-0.85
2023-03-11T21:13:06.736Z,-0.81
2023-03-11T21:16:11.084Z,-0.82
2023-03-11T21:19:15.829Z,-0.81
2023-03-11T21:22:19.347Z,-0.82
2023-03-11T21:25:23.101Z,-0.83
2023-03-11T21:28:28.757Z,-0.81
2023-03-11T21:31:32.425Z,-0.84
2023-03-11T21:34:36.022Z,-0.84
2023-03-11T21:37:39.683Z,-0.90
2023-03-11T21:40:43.422Z,-0.94
2023-03-11T21:43:50.224Z,-0.98
2023-03-11T21:46:53.837Z,-1.02
2023-03-11T21:49:57.481Z,-1.09
2023-03-11T21:53:02.408Z,-1.17
2023-03-11T21:56:06.661Z,-1.18
2023-03-11T21:59:11.728Z,-1.25
2023-03-11T22:02:18.017Z,-1.28
2023-03-11T22:05:21.725Z,-1.32
2023-03-11T22:08:25.721Z,-1.35
2023-03-11T22:11:29.975Z,-1.43
2023-03-11T22:14:35.161Z,-1.42
2023-03-11T22:17:39.029Z,-1.44
2023-03-11T22:20:44.406Z,-1.46
2023-03-11T22:23:49.076Z,-1.49
2023-03-11T22:26:52.938Z,-1.52
2023-03-11T22:29:57.886Z,-1.57
2023-03-11T22:33:02.394Z,-1.56
2023-03-11T22:36:07.897Z,-1.61
2023-03-11T22:39:11.516Z,-1.67
2023-03-11T22:42:15.036Z,-1.67
2023-03-11T22:45:22.380Z,-1.70
2023-03-11T22:48:25.995Z,-1.67
2023-03-11T22:51:29.535Z,-1.63
2023-03-11T22:54:33.285Z,-1.70
2023-03-11T22:57:38.989Z,-1.70
2023-03-11T23:00:44.557Z,-1.76
2023-03-11T23:03:48.218Z,-1.71
2023-03-11T23:06:54.486Z,-1.77
2023-03-11T23:09:57.960Z,-1.72
2023-03-11T23:13:01.557Z,-1.76
2023-03-11T23:16:09.736Z,-1.78
2023-03-11T23:19:14.039Z,-1.85
2023-03-11T23:22:17.488Z,-1.83
2023-03-11T23:25:21.424Z,-1.90
2023-03-11T23:28:24.916Z,-1.94
2023-03-11T23:31:32.337Z,-1.91
2023-03-11T23:34:36.636Z,-1.93
2023-03-11T23:37:40.450Z,-1.90
2023-03-11T23:40:43.991Z,-1.99
2023-03-11T23:43:47.795Z,-2.06
2023-03-11T23:46:52.924Z,-1.97
2023-03-11T23:49:56.559Z,-2.02
2023-03-11T23:53:00.068Z,-2.06
2023-03-11T23:56:03.496Z,-2.09
2023-03-11T23:59:06.987Z,-2.12
